• Join FlightAware (Why Join?)
  • Login
  • US Flag 
03:26PM EDT


 

Airport Tracker/Info


-or-


 

Live Flight TrackerFlight Track Log ✈ JIA2328 ✈ 14-May-2013 ✈ KCLT - KOAJ

Flight Track Log - Related Links

Times and Time Zones

All times are in EDT time to prevent confusion due to time zone crossing. See the JIA2328 flight status page for this flight to view local times or setup timezone preferences in your user account.

Time Position Orientation Groundspeed Altitude Reporting Facility
EDT Latitude Longitude Course Direction KTS MPH feet Rate Location/Type
05:57PM 35.1928 -80.9331 106° East 159 183 1,500  Level Atlanta Center
05:57PM 35.1719 -80.9339 182° South 160 184 2,300 2,040 Climbing Atlanta Center
05:58PM 35.1228 -80.8875 142° Southeast 269 310 4,400 2,100 Climbing Atlanta Center
05:59PM 35.1000 -80.6332 109° East  Level FlightAware Approximate
05:59PM 35.1106 -80.8169 102° East 291 335 6,300  Level Atlanta Center
06:00PM 35.0667 -80.5112 90° East  Level FlightAware Approximate
06:00PM 35.0911 -80.7136 103° East 308 354 7,900  Level Atlanta Center
06:01PM 35.0399 -80.3870 106° East  Level FlightAware Approximate
06:01PM 35.0717 -80.6103 103° East 314 361 10,400  Level Atlanta Center
06:02PM 35.0104 -80.2633 106° East  Level FlightAware Approximate
06:03PM 35.0347 -80.4064 102° East 352 405 13,400  Level Washington Center
06:03PM 35.0125 -80.2833 102° East 366 421 15,100 1,440 Climbing Washington Center
06:04PM 34.9919 -80.1681 102° East 378 435 16,300 1,080 Climbing Washington Center
06:05PM 34.9578 -80.0217 106° East 393 452 17,300 960 Climbing Washington Center
06:06PM 34.9375 -79.8864 100° East 406 467 18,200 840 Climbing Washington Center
06:07PM 34.9458 -79.7753 85° East 400 460 19,000 360 Climbing Washington Center
06:08PM 34.9489 -79.6233 89° East 400 460 19,000 -300 Level Washington Center
06:09PM 34.9561 -79.4642 87° East 418 481 18,500 -720 Descending Washington Center
06:10PM 34.9628 -79.3200 87° East 418 481 17,600 -1,080 Descending Washington Center
06:11PM 34.9694 -79.1758 87° East 418 481 16,400 -840 Descending Washington Center
06:13PM 34.9778 -79.0317 86° East 418 481 16,000 -240 Descending Washington Center
06:13PM 34.9839 -78.8925 87° East 418 481 16,000  Level Washington Center
06:14PM 34.9708 -78.7578 97° East 413 475 16,000 -180 Level Washington Center
06:15PM 34.9514 -78.6175 100° East 413 475 15,700 -960 Descending Washington Center
06:17PM 34.9361 -78.4753 97° East 413 475 14,100 -1,620 Descending Washington Center
06:17PM 34.9186 -78.3403 99° East 408 470 12,500 -1,800 Descending Washington Center
06:18PM 34.9025 -78.2131 99° East 395 455 10,600 -1,560 Descending Washington Center
06:20PM 34.8903 -78.1014 98° East 362 417 9,400 -1,620 Descending Washington Center
06:20PM 34.8778 -77.9997 98° East 326 375 7,400 -2,040 Descending Washington Center
06:21PM 34.8694 -77.9033 96° East 301 346 5,400 -1,980 Descending Washington Center
06:22PM 34.8564 -77.8144 100° East 282 325 3,500 -1,200 Descending Washington Center
06:23PM 34.8453 -77.7381 100° East 251 289 3,000 -600 Descending Washington Center
06:25PM 34.8381 -77.6722 98° East 215 247 2,400 -600 Descending Washington Center